Terminal Aerodrome Forecast
Issued by NWS

Home | Current Version | Previous Version | Text Only | Print | Product List | Glossary On
Versions: 1 2 3 4 5 6 7 8 9 10 11 12 13 14 15 16 17 18 19 20 21 22 23
637
FTUS42 KJAX 302320
TAFVQQ
TAF
KVQQ 302320Z 0100/0124 14014G21KT P6SM FEW025 SCT150 BKN250
     FM010400 15010G15KT P6SM SCT020
     FM010800 16008KT P6SM BKN015
     FM011300 19014G21KT P6SM BKN025
     FM011700 19017G25KT P6SM VCSH BKN040=

USA.gov is the U.S. government's official web portal to all federal, state and local government web resources and services.